Kovrov, Russia
Current Conditions -  °F | °C
As of 8:30 AM on Friday 31 Oct 2014 (Local Time) from UUDL Reporting Station
Overcast Overcast  
Wind Chill: 30°   Ceiling: 1200
Heat Index: 36°   Visibility: 5mi
Dew Point: 30°   Wind: 7mph
Humidity: 81%   Direction: 270°W
Pressure: 30"   Gusts: NA
Location:  56.36°N, 41.32°E
Report Text: UUDL 310530Z 27003MPS 8000 OVC012 02/M01 Q1016 NOSIG RMK QFE75423000060
Loading
Personal Weather Stations






























Interactive Weather Map
Tropical Storm Tracking
New forecast layout! Learn more

10-Day Weather Forecast

Advertisements
Track Severe Weather on mobile